createdAt,value
2023-02-11T00:00:40.489Z,5.20
2023-02-11T00:04:07.105Z,2.30
2023-02-11T00:07:31.018Z,2.30
2023-02-11T00:10:55.681Z,2.30
2023-02-11T00:17:45.850Z,2.20
2023-02-11T00:21:10.726Z,2.20
2023-02-11T00:24:34.281Z,2.20
2023-02-11T00:27:57.817Z,2.20
2023-02-11T00:31:24.194Z,2.20
2023-02-11T00:34:52.957Z,2.10
2023-02-11T00:38:16.700Z,2.10
2023-02-11T00:41:40.422Z,2.10
2023-02-11T00:45:05.126Z,2.10
2023-02-11T00:48:29.606Z,2.40
2023-02-11T00:51:54.935Z,2.10
2023-02-11T00:55:18.695Z,2.10
2023-02-11T00:58:42.848Z,2.10
2023-02-11T01:02:07.119Z,2.10
2023-02-11T01:05:31.505Z,2.10
2023-02-11T01:08:57.179Z,2.10
2023-02-11T01:12:21.330Z,2.00
2023-02-11T01:15:49.809Z,2.00
2023-02-11T01:19:14.387Z,2.00
2023-02-11T01:22:39.505Z,2.00
2023-02-11T01:26:04.649Z,2.00
2023-02-11T01:29:28.209Z,2.00
2023-02-11T01:32:51.733Z,2.00
2023-02-11T01:36:15.559Z,2.00
2023-02-11T01:39:39.138Z,2.00
2023-02-11T01:43:04.095Z,1.90
2023-02-11T01:46:35.376Z,1.90
2023-02-11T01:50:02.873Z,1.90
2023-02-11T01:53:46.090Z,1.90
2023-02-11T01:57:23.349Z,1.90
2023-02-11T02:00:49.966Z,1.90
2023-02-11T02:04:18.758Z,1.80
2023-02-11T02:07:50.257Z,1.80
2023-02-11T02:11:14.693Z,1.90
2023-02-11T02:14:41.024Z,1.80
2023-02-11T02:22:54.682Z,2.00
2023-02-11T02:27:04.904Z,-1.20
2023-02-11T02:31:10.760Z,1.90
2023-02-11T02:34:45.662Z,1.90
2023-02-11T02:38:19.872Z,1.90
2023-02-11T02:41:46.104Z,1.90
2023-02-11T02:45:12.855Z,1.90
2023-02-11T02:48:36.478Z,1.90
2023-02-11T02:52:27.375Z,1.90
2023-02-11T02:56:04.387Z,1.90
2023-02-11T02:59:43.961Z,1.90
2023-02-11T03:03:29.444Z,1.90
2023-02-11T03:07:01.781Z,2.40
2023-02-11T03:10:32.445Z,1.90
2023-02-11T03:13:58.409Z,1.90
2023-02-11T03:17:24.717Z,1.90
2023-02-11T03:20:54.616Z,1.90
2023-02-11T03:24:26.951Z,1.90
2023-02-11T03:28:01.544Z,1.90
2023-02-11T03:31:37.745Z,2.00
2023-02-11T03:35:09.074Z,2.00
2023-02-11T03:38:39.325Z,2.00
2023-02-11T03:42:06.976Z,2.00
2023-02-11T03:45:32.405Z,2.00
2023-02-11T03:49:04.074Z,2.00
2023-02-11T03:52:28.494Z,2.00
2023-02-11T03:55:55.082Z,2.10
2023-02-11T03:59:19.023Z,2.10
2023-02-11T04:02:45.303Z,2.10
2023-02-11T04:06:09.536Z,2.10
2023-02-11T04:09:33.119Z,2.20
2023-02-11T04:12:56.745Z,2.20
2023-02-11T04:16:20.432Z,2.30
2023-02-11T04:19:45.534Z,2.30
2023-02-11T04:23:10.187Z,2.30
2023-02-11T04:26:34.144Z,2.40
2023-02-11T04:29:57.739Z,2.40
2023-02-11T04:33:21.379Z,2.40
2023-02-11T04:36:46.824Z,2.50
2023-02-11T04:40:12.134Z,2.50
2023-02-11T04:43:35.718Z,2.60
2023-02-11T04:46:59.302Z,2.60
2023-02-11T04:50:23.205Z,2.70
2023-02-11T04:53:48.092Z,2.70
2023-02-11T04:57:11.569Z,2.70
2023-02-11T05:00:35.181Z,2.70
2023-02-11T05:03:59.195Z,2.80
2023-02-11T05:07:22.765Z,2.80
2023-02-11T05:10:49.077Z,2.90
2023-02-11T05:14:13.043Z,2.90
2023-02-11T05:17:37.275Z,3.00
2023-02-11T05:21:00.846Z,3.00
2023-02-11T05:24:24.488Z,3.00
2023-02-11T05:27:49.460Z,3.10
2023-02-11T05:31:14.588Z,3.10
2023-02-11T05:34:38.475Z,3.10
2023-02-11T05:38:02.004Z,3.10
2023-02-11T05:41:25.677Z,3.10
2023-02-11T05:44:50.852Z,3.10
2023-02-11T05:48:15.020Z,3.10
2023-02-11T05:51:38.606Z,3.10
2023-02-11T05:55:02.183Z,3.10
2023-02-11T05:58:25.994Z,3.10
2023-02-11T06:01:50.926Z,3.20
2023-02-11T06:05:14.472Z,3.20
2023-02-11T06:08:39.400Z,3.20
2023-02-11T06:12:03.603Z,3.20
2023-02-11T06:15:27.109Z,3.30
2023-02-11T06:18:52.078Z,3.30
2023-02-11T06:22:15.696Z,3.30
2023-02-11T06:25:39.204Z,3.30
2023-02-11T06:29:03.096Z,3.30
2023-02-11T06:32:45.750Z,3.30
2023-02-11T06:36:19.010Z,3.30
2023-02-11T06:39:42.625Z,3.40
2023-02-11T06:43:07.222Z,3.40
2023-02-11T06:46:30.860Z,3.40
2023-02-11T06:49:54.371Z,3.40
2023-02-11T06:53:19.366Z,3.40
2023-02-11T06:56:43.273Z,3.40
2023-02-11T07:00:09.100Z,3.40
2023-02-11T07:03:32.644Z,3.40
2023-02-11T07:06:56.247Z,3.40
2023-02-11T07:10:21.218Z,3.40
2023-02-11T07:13:45.200Z,3.40
2023-02-11T07:17:09.046Z,3.50
2023-02-11T07:20:32.601Z,3.50
2023-02-11T07:23:56.657Z,3.70
2023-02-11T07:27:21.565Z,3.50
2023-02-11T07:30:45.230Z,3.60
2023-02-11T07:34:08.902Z,3.60
2023-02-11T07:37:34.696Z,3.60
2023-02-11T07:41:01.897Z,3.70
2023-02-11T07:44:26.860Z,3.70
2023-02-11T07:47:50.624Z,4.20
2023-02-11T07:51:17.558Z,3.90
2023-02-11T07:54:41.396Z,4.00
2023-02-11T07:58:05.057Z,4.10
2023-02-11T08:01:31.154Z,4.20
2023-02-11T08:04:54.776Z,4.20
2023-02-11T08:08:18.270Z,4.30
2023-02-11T08:11:42.130Z,4.40
2023-02-11T08:15:06.354Z,4.50
2023-02-11T08:18:31.556Z,4.60
2023-02-11T08:21:58.389Z,4.60
2023-02-11T08:25:21.968Z,4.70
2023-02-11T08:28:48.450Z,4.80
2023-02-11T08:32:12.524Z,4.90
2023-02-11T08:35:39.813Z,5.00
2023-02-11T08:39:22.481Z,5.70
2023-02-11T08:42:46.104Z,5.20
2023-02-11T08:46:11.135Z,5.40
2023-02-11T08:49:35.102Z,5.50
2023-02-11T08:53:00.552Z,5.70
2023-02-11T08:56:24.998Z,5.90
2023-02-11T08:59:48.545Z,6.00
2023-02-11T09:03:12.215Z,6.20
2023-02-11T09:06:35.854Z,6.30
2023-02-11T09:10:01.116Z,6.50
2023-02-11T09:13:24.674Z,6.60
2023-02-11T09:16:49.272Z,6.70
2023-02-11T09:20:12.969Z,7.00
2023-02-11T09:23:37.129Z,6.80
2023-02-11T09:27:02.490Z,6.90
2023-02-11T09:30:26.085Z,6.90
2023-02-11T09:33:53.481Z,6.90
2023-02-11T09:37:16.944Z,6.90
2023-02-11T09:40:44.372Z,6.90
2023-02-11T09:44:19.661Z,6.90
2023-02-11T09:47:50.956Z,6.90
2023-02-11T09:51:23.734Z,6.90
2023-02-11T09:54:56.902Z,6.90
2023-02-11T09:58:27.942Z,7.00
2023-02-11T10:02:00.026Z,7.00
2023-02-11T10:05:44.323Z,7.10
2023-02-11T10:09:31.594Z,7.30
2023-02-11T10:13:17.131Z,7.40
2023-02-11T10:17:04.464Z,7.60
2023-02-11T10:20:38.131Z,7.70
2023-02-11T10:24:06.453Z,7.90
2023-02-11T10:27:34.909Z,8.10
2023-02-11T10:31:02.956Z,8.40
2023-02-11T10:34:27.941Z,8.20
2023-02-11T10:37:51.932Z,8.30
2023-02-11T10:41:23.640Z,8.50
2023-02-11T10:45:00.178Z,8.90
2023-02-11T10:48:46.453Z,9.60
2023-02-11T10:52:20.782Z,10.60
2023-02-11T10:55:53.509Z,11.80
2023-02-11T10:59:26.623Z,12.50
2023-02-11T11:02:59.380Z,13.40
2023-02-11T11:06:32.959Z,14.20
2023-02-11T11:10:02.629Z,15.10
2023-02-11T11:13:33.146Z,15.50
2023-02-11T11:16:57.179Z,16.00
2023-02-11T11:20:28.301Z,16.40
2023-02-11T11:23:59.532Z,16.80
2023-02-11T11:27:27.139Z,17.20
2023-02-11T11:30:53.201Z,17.50
2023-02-11T11:34:28.051Z,17.90
2023-02-11T11:37:59.955Z,18.10
2023-02-11T11:41:31.612Z,18.40
2023-02-11T11:45:02.398Z,18.50
2023-02-11T11:48:33.575Z,18.60
2023-02-11T11:52:09.051Z,18.70
2023-02-11T11:55:41.652Z,18.40
2023-02-11T12:03:17.536Z,18.10
2023-02-11T12:06:55.611Z,17.20
2023-02-11T12:10:53.258Z,16.80
2023-02-11T12:14:29.791Z,16.20
2023-02-11T12:18:15.621Z,15.80
2023-02-11T12:21:50.895Z,15.30
2023-02-11T12:25:30.835Z,15.00
2023-02-11T12:29:09.255Z,14.70
2023-02-11T12:32:44.389Z,14.50
2023-02-11T12:36:23.155Z,14.40
2023-02-11T12:39:57.724Z,14.30
2023-02-11T12:43:27.120Z,14.40
2023-02-11T12:47:00.514Z,14.10
2023-02-11T12:50:36.240Z,14.00
2023-02-11T12:54:25.561Z,13.80
2023-02-11T12:57:53.162Z,13.70
2023-02-11T13:01:24.640Z,13.60
2023-02-11T13:04:55.280Z,13.50
2023-02-11T13:08:25.940Z,13.40
2023-02-11T13:11:55.800Z,13.30
2023-02-11T13:18:53.248Z,13.20
2023-02-11T13:22:25.170Z,13.00
2023-02-11T13:25:58.997Z,12.90
2023-02-11T13:29:39.223Z,12.90
2023-02-11T13:33:22.355Z,12.80
2023-02-11T13:36:56.759Z,12.80
2023-02-11T13:40:24.938Z,13.50
2023-02-11T13:44:02.881Z,12.70
2023-02-11T13:47:34.510Z,12.60
2023-02-11T13:51:01.965Z,12.50
2023-02-11T13:58:39.796Z,12.30
2023-02-11T14:02:38.603Z,12.20
2023-02-11T14:06:37.697Z,12.10
2023-02-11T14:13:28.398Z,11.80
2023-02-11T14:17:35.488Z,11.80
2023-02-11T14:21:13.146Z,11.70
2023-02-11T14:24:54.389Z,11.70
2023-02-11T14:28:32.717Z,11.60
2023-02-11T14:32:06.990Z,11.50
2023-02-11T14:35:40.800Z,11.50
2023-02-11T14:39:16.274Z,11.50
2023-02-11T14:42:41.295Z,11.40
2023-02-11T14:46:05.798Z,11.40
2023-02-11T14:49:34.633Z,11.40
2023-02-11T14:53:02.465Z,11.30
2023-02-11T14:56:31.111Z,11.30
2023-02-11T15:00:02.615Z,11.30
2023-02-11T15:03:34.616Z,11.20
2023-02-11T15:07:04.344Z,11.20
2023-02-11T15:10:36.179Z,11.30
2023-02-11T15:14:09.969Z,11.20
2023-02-11T15:17:35.545Z,11.60
2023-02-11T15:20:59.214Z,11.20
2023-02-11T15:24:28.621Z,11.20
2023-02-11T15:27:56.549Z,11.20
2023-02-11T15:31:24.201Z,11.10
2023-02-11T15:34:52.152Z,11.10
2023-02-11T15:41:40.356Z,10.90
2023-02-11T15:45:26.039Z,10.80
2023-02-11T15:48:53.213Z,10.80
2023-02-11T15:52:26.996Z,10.70
2023-02-11T15:55:53.930Z,10.60
2023-02-11T15:59:21.965Z,10.50
2023-02-11T16:02:48.763Z,10.50
2023-02-11T16:06:25.305Z,10.40
2023-02-11T16:09:59.658Z,10.30
2023-02-11T16:13:24.413Z,10.20
2023-02-11T16:16:52.671Z,10.20
2023-02-11T16:20:20.771Z,10.10
2023-02-11T16:23:52.056Z,10.10
2023-02-11T16:27:25.302Z,10.00
2023-02-11T16:30:55.507Z,10.00
2023-02-11T16:34:22.247Z,10.00
2023-02-11T16:37:45.710Z,10.00
2023-02-11T16:41:11.837Z,8.30
2023-02-11T16:44:36.867Z,10.00
2023-02-11T16:48:02.104Z,10.00
2023-02-11T16:51:26.062Z,10.00
2023-02-11T16:54:49.713Z,10.00
2023-02-11T16:58:13.220Z,9.90
2023-02-11T17:01:40.721Z,10.20
2023-02-11T17:05:08.887Z,10.00
2023-02-11T17:08:32.901Z,9.90
2023-02-11T17:11:56.309Z,9.90
2023-02-11T17:15:20.023Z,9.90
2023-02-11T17:18:44.897Z,9.90
2023-02-11T17:22:08.596Z,10.00
2023-02-11T17:25:32.639Z,10.00
2023-02-11T17:28:56.429Z,10.00
2023-02-11T17:32:20.021Z,10.00
2023-02-11T17:35:44.878Z,10.10
2023-02-11T17:39:09.451Z,10.10
2023-02-11T17:42:33.046Z,10.10
2023-02-11T17:45:56.600Z,10.10
2023-02-11T17:49:20.390Z,10.00
2023-02-11T17:52:45.292Z,10.00
2023-02-11T17:56:10.214Z,9.90
2023-02-11T17:59:35.477Z,9.90
2023-02-11T18:03:02.709Z,9.90
2023-02-11T18:06:26.949Z,9.80
2023-02-11T18:09:52.112Z,9.80
2023-02-11T18:13:15.581Z,9.80
2023-02-11T18:16:42.944Z,9.80
2023-02-11T18:20:08.925Z,9.80
2023-02-11T18:23:32.533Z,9.80
2023-02-11T18:26:57.362Z,9.80
2023-02-11T18:30:22.090Z,9.80
2023-02-11T18:33:46.040Z,9.80
2023-02-11T18:37:10.264Z,9.80
2023-02-11T18:40:35.517Z,9.80
2023-02-11T18:44:03.062Z,9.70
2023-02-11T18:47:27.177Z,9.70
2023-02-11T18:50:50.691Z,9.70
2023-02-11T18:54:14.755Z,9.70
2023-02-11T18:57:38.220Z,9.70
2023-02-11T19:01:03.252Z,10.10
2023-02-11T19:04:28.362Z,9.70
2023-02-11T19:07:51.918Z,9.70
2023-02-11T19:11:18.650Z,9.70
2023-02-11T19:14:42.327Z,9.70
2023-02-11T19:18:07.514Z,9.70
2023-02-11T19:21:31.269Z,9.70
2023-02-11T19:24:54.801Z,9.80
2023-02-11T19:28:18.386Z,9.70
2023-02-11T19:31:42.301Z,9.80
2023-02-11T19:35:08.588Z,9.80
2023-02-11T19:38:32.327Z,9.80
2023-02-11T19:41:55.855Z,9.80
2023-02-11T19:45:19.514Z,9.80
2023-02-11T19:48:43.025Z,9.80
2023-02-11T19:52:08.016Z,9.80
2023-02-11T19:55:31.497Z,9.80
2023-02-11T19:58:55.063Z,9.70
2023-02-11T20:02:18.891Z,9.70
2023-02-11T20:05:46.958Z,9.60
2023-02-11T20:09:15.594Z,9.60
2023-02-11T20:12:39.171Z,9.50
2023-02-11T20:16:12.284Z,9.50
2023-02-11T20:19:36.527Z,9.50
2023-02-11T20:22:59.996Z,9.50
2023-02-11T20:26:28.980Z,9.50
2023-02-11T20:29:52.565Z,9.60
2023-02-11T20:33:16.044Z,9.60
2023-02-11T20:36:40.441Z,9.60
2023-02-11T20:40:04.410Z,9.60
2023-02-11T20:43:29.167Z,9.60
2023-02-11T20:50:19.299Z,9.60
2023-02-11T20:53:47.742Z,9.60
2023-02-11T20:57:11.548Z,9.60
2023-02-11T21:00:38.011Z,9.60
2023-02-11T21:04:04.443Z,9.50
2023-02-11T21:07:29.386Z,9.50
2023-02-11T21:10:52.950Z,9.50
2023-02-11T21:14:17.848Z,9.50
2023-02-11T21:17:42.588Z,9.40
2023-02-11T21:21:07.153Z,9.40
2023-02-11T21:24:31.688Z,9.40
2023-02-11T21:27:55.114Z,9.40
2023-02-11T21:31:22.808Z,9.40
2023-02-11T21:34:47.799Z,9.40
2023-02-11T21:38:11.312Z,9.40
2023-02-11T21:41:35.282Z,9.40
2023-02-11T21:44:58.956Z,9.40
2023-02-11T21:48:23.798Z,9.40
2023-02-11T21:51:48.722Z,9.40
2023-02-11T21:55:12.701Z,9.70
2023-02-11T21:58:37.289Z,9.30
2023-02-11T22:02:00.887Z,9.30
2023-02-11T22:05:25.186Z,9.40
2023-02-11T22:08:50.790Z,9.30
2023-02-11T22:12:14.357Z,9.30
2023-02-11T22:15:37.950Z,9.30
2023-02-11T22:19:03.439Z,9.30
2023-02-11T22:22:27.189Z,9.40
2023-02-11T22:25:52.362Z,9.40
2023-02-11T22:29:16.336Z,9.30
2023-02-11T22:32:42.370Z,9.30
2023-02-11T22:36:09.885Z,9.30
2023-02-11T22:39:33.602Z,9.20
2023-02-11T22:42:59.036Z,9.20
2023-02-11T22:46:22.571Z,9.30
2023-02-11T22:49:46.063Z,9.30
2023-02-11T22:53:09.702Z,9.30
2023-02-11T22:56:35.901Z,9.20
2023-02-11T23:00:00.823Z,9.20
2023-02-11T23:03:26.480Z,9.20
2023-02-11T23:06:50.708Z,9.20
2023-02-11T23:10:15.747Z,9.20
2023-02-11T23:13:41.967Z,9.20
2023-02-11T23:17:07.125Z,9.20
2023-02-11T23:20:30.724Z,9.20
2023-02-11T23:23:57.930Z,9.20
2023-02-11T23:27:21.696Z,9.20
2023-02-11T23:30:45.279Z,9.20
2023-02-11T23:34:10.826Z,9.20
2023-02-11T23:37:34.375Z,9.20
2023-02-11T23:40:57.995Z,9.20
2023-02-11T23:44:21.988Z,9.20
2023-02-11T23:47:45.761Z,9.20
2023-02-11T23:51:11.190Z,9.20
2023-02-11T23:54:34.613Z,9.20
2023-02-11T23:57:58.051Z,9.20
